createdAt,value
2017-06-30T00:00:09.783Z,0
2017-06-30T00:00:50.678Z,0
2017-06-30T00:01:31.574Z,0
2017-06-30T00:02:12.468Z,0
2017-06-30T00:02:53.358Z,0
2017-06-30T00:03:34.250Z,0
2017-06-30T00:04:15.133Z,0
2017-06-30T00:04:56.025Z,0
2017-06-30T00:05:36.914Z,0
2017-06-30T00:06:17.802Z,0
2017-06-30T00:06:58.698Z,0
2017-06-30T00:07:39.585Z,0
2017-06-30T00:08:20.473Z,0
2017-06-30T00:09:01.363Z,0
2017-06-30T00:09:42.257Z,0
2017-06-30T00:10:23.153Z,0
2017-06-30T00:11:04.067Z,0
2017-06-30T00:11:44.942Z,0
2017-06-30T00:12:25.837Z,0
2017-06-30T00:13:06.730Z,0
2017-06-30T00:13:47.618Z,0
2017-06-30T00:14:28.508Z,0
2017-06-30T00:15:09.399Z,0
2017-06-30T00:15:50.287Z,0
2017-06-30T00:16:31.173Z,0
2017-06-30T00:17:12.067Z,0
2017-06-30T00:17:52.963Z,0
2017-06-30T00:18:33.849Z,0
2017-06-30T00:19:14.743Z,0
2017-06-30T00:19:55.636Z,0
2017-06-30T00:20:36.525Z,0
2017-06-30T00:21:17.413Z,0
2017-06-30T00:21:58.311Z,0
2017-06-30T00:22:39.202Z,0
2017-06-30T00:23:20.092Z,0
2017-06-30T00:24:00.990Z,0
2017-06-30T00:24:41.877Z,0
2017-06-30T00:25:22.772Z,0
2017-06-30T00:26:03.664Z,0
2017-06-30T00:26:44.558Z,0
2017-06-30T00:27:25.461Z,0
2017-06-30T00:28:06.349Z,0
2017-06-30T00:28:47.237Z,0
2017-06-30T00:29:28.122Z,0
2017-06-30T00:30:09.019Z,0
2017-06-30T00:30:49.908Z,0
2017-06-30T00:31:30.799Z,0
2017-06-30T00:32:11.700Z,0
2017-06-30T00:32:52.579Z,0
2017-06-30T00:33:33.480Z,0
2017-06-30T00:34:14.366Z,0
2017-06-30T00:34:55.255Z,0
2017-06-30T00:35:36.143Z,0
2017-06-30T00:36:17.037Z,0
2017-06-30T00:36:57.929Z,0
2017-06-30T00:37:38.825Z,0
2017-06-30T00:38:19.712Z,0
2017-06-30T00:39:00.605Z,0
2017-06-30T00:39:41.496Z,0
2017-06-30T00:40:22.393Z,0
2017-06-30T00:41:03.293Z,0
2017-06-30T00:41:44.190Z,0
2017-06-30T00:42:25.079Z,0
2017-06-30T00:43:05.965Z,0
2017-06-30T00:43:46.850Z,0
2017-06-30T00:44:27.730Z,0
2017-06-30T00:45:08.622Z,0
2017-06-30T00:45:49.511Z,0
2017-06-30T00:46:30.405Z,0
2017-06-30T00:47:11.299Z,0
2017-06-30T00:47:52.188Z,0
2017-06-30T00:48:33.071Z,0
2017-06-30T00:49:13.964Z,0
2017-06-30T00:49:54.890Z,0
2017-06-30T00:50:35.751Z,0
2017-06-30T00:51:16.639Z,0
2017-06-30T00:51:57.544Z,0
2017-06-30T00:52:38.429Z,0
2017-06-30T00:53:19.326Z,0
2017-06-30T00:54:00.217Z,0
2017-06-30T00:54:41.109Z,0
2017-06-30T00:55:22.012Z,0
2017-06-30T00:56:02.902Z,0
2017-06-30T00:56:43.794Z,0
2017-06-30T00:57:24.674Z,0
2017-06-30T00:58:05.559Z,0
2017-06-30T00:58:46.450Z,0
2017-06-30T00:59:27.346Z,0
2017-06-30T01:00:08.245Z,0
2017-06-30T01:00:49.133Z,0
2017-06-30T01:01:30.026Z,0
2017-06-30T01:02:10.933Z,0
2017-06-30T01:02:51.824Z,0
2017-06-30T01:03:32.722Z,0
2017-06-30T01:04:13.620Z,0
2017-06-30T01:04:54.509Z,0
2017-06-30T01:05:35.406Z,0
2017-06-30T01:06:16.294Z,0
2017-06-30T01:06:57.182Z,0
2017-06-30T01:07:38.078Z,0
2017-06-30T01:08:18.976Z,0
2017-06-30T01:08:59.864Z,0
2017-06-30T01:09:40.756Z,0
2017-06-30T01:10:21.655Z,0
2017-06-30T01:12:20.432Z,0
2017-06-30T01:13:01.334Z,0
2017-06-30T01:13:42.230Z,0
2017-06-30T01:14:23.121Z,0
2017-06-30T01:15:04.034Z,0
2017-06-30T01:15:44.906Z,0
2017-06-30T01:16:25.796Z,0
2017-06-30T01:17:06.685Z,0
2017-06-30T01:17:47.573Z,0
2017-06-30T01:18:28.465Z,0
2017-06-30T01:19:09.356Z,0
2017-06-30T01:19:50.272Z,0
2017-06-30T01:20:31.163Z,0
2017-06-30T01:21:12.049Z,0
2017-06-30T01:21:52.948Z,0
2017-06-30T01:22:33.838Z,0
2017-06-30T01:23:14.724Z,0
2017-06-30T01:23:55.616Z,0
2017-06-30T01:24:36.505Z,0
2017-06-30T01:25:17.398Z,0
2017-06-30T01:25:58.296Z,0
2017-06-30T01:26:39.187Z,0
2017-06-30T01:27:20.093Z,0
2017-06-30T01:28:00.982Z,0
2017-06-30T01:28:41.871Z,0
2017-06-30T01:29:22.773Z,0
2017-06-30T01:30:03.660Z,0
2017-06-30T01:30:44.558Z,0
2017-06-30T01:31:25.446Z,0
2017-06-30T01:32:06.339Z,0
2017-06-30T01:32:47.225Z,0
2017-06-30T01:33:28.124Z,0
2017-06-30T01:34:09.015Z,0
2017-06-30T01:34:49.907Z,0
2017-06-30T01:35:30.802Z,0
2017-06-30T01:36:11.690Z,0
2017-06-30T01:36:52.580Z,0
2017-06-30T01:37:33.477Z,0
2017-06-30T01:38:14.366Z,0
2017-06-30T01:38:55.252Z,0
2017-06-30T01:39:36.157Z,0
2017-06-30T01:40:17.044Z,0
2017-06-30T01:40:57.925Z,0
2017-06-30T01:41:38.815Z,0
2017-06-30T01:42:19.713Z,0
2017-06-30T01:43:00.601Z,0
2017-06-30T01:43:41.487Z,0
2017-06-30T01:44:22.368Z,0
2017-06-30T01:45:03.254Z,0
2017-06-30T01:45:44.135Z,0
2017-06-30T01:46:25.028Z,0
2017-06-30T01:47:05.918Z,0
2017-06-30T01:47:46.805Z,0
2017-06-30T01:48:27.692Z,0
2017-06-30T01:49:08.592Z,0
2017-06-30T01:49:49.482Z,0
2017-06-30T01:50:30.368Z,0
2017-06-30T01:51:11.256Z,0
2017-06-30T01:53:10.113Z,0
2017-06-30T01:53:51.012Z,0
2017-06-30T01:54:31.893Z,0
2017-06-30T01:55:12.784Z,0
2017-06-30T01:55:53.677Z,0
2017-06-30T01:56:34.574Z,0
2017-06-30T01:57:15.463Z,0
2017-06-30T01:57:56.367Z,0
2017-06-30T01:58:37.253Z,0
2017-06-30T01:59:18.142Z,0
2017-06-30T01:59:59.036Z,0
2017-06-30T02:00:39.927Z,0
2017-06-30T02:01:20.816Z,0
2017-06-30T02:02:01.711Z,0
2017-06-30T02:02:42.598Z,0
2017-06-30T02:03:23.488Z,0
2017-06-30T02:04:04.390Z,0
2017-06-30T02:04:45.274Z,0
2017-06-30T02:05:26.158Z,0
2017-06-30T02:06:07.053Z,0
2017-06-30T02:06:47.941Z,0
2017-06-30T02:07:28.835Z,0
2017-06-30T02:08:09.723Z,0
2017-06-30T02:08:50.609Z,0
2017-06-30T02:09:31.482Z,0
2017-06-30T02:10:12.373Z,0
2017-06-30T02:10:53.271Z,0
2017-06-30T02:11:34.150Z,0
2017-06-30T02:12:15.044Z,0
2017-06-30T02:12:55.940Z,0
2017-06-30T02:13:36.837Z,0
2017-06-30T02:14:17.728Z,0
2017-06-30T02:14:58.639Z,0
2017-06-30T02:15:39.517Z,0
2017-06-30T02:16:20.407Z,0
2017-06-30T02:17:01.303Z,0
2017-06-30T02:17:42.213Z,0
2017-06-30T02:18:23.102Z,0
2017-06-30T02:19:03.998Z,0
2017-06-30T02:19:44.891Z,0
2017-06-30T02:20:25.783Z,0
2017-06-30T02:21:06.678Z,0
2017-06-30T02:21:47.564Z,0
2017-06-30T02:22:28.458Z,0
2017-06-30T02:23:09.344Z,0
2017-06-30T02:23:50.240Z,0
2017-06-30T02:24:31.134Z,0
2017-06-30T02:25:12.019Z,0
2017-06-30T02:25:52.902Z,0
2017-06-30T02:26:33.790Z,0
2017-06-30T02:27:14.683Z,0
2017-06-30T02:27:55.572Z,0
2017-06-30T02:28:36.453Z,0
2017-06-30T02:29:17.344Z,0
2017-06-30T02:29:58.235Z,0
2017-06-30T02:30:39.124Z,0
2017-06-30T02:31:20.031Z,0
2017-06-30T02:32:00.917Z,0
2017-06-30T02:32:41.805Z,0
2017-06-30T02:33:22.706Z,0
2017-06-30T02:34:03.595Z,0
2017-06-30T02:34:44.485Z,0
2017-06-30T02:35:25.373Z,0
2017-06-30T02:36:06.271Z,0
2017-06-30T02:36:47.160Z,0
2017-06-30T02:37:28.064Z,0
2017-06-30T02:38:08.947Z,0
2017-06-30T02:38:49.855Z,0
2017-06-30T02:39:30.747Z,0
2017-06-30T02:40:11.634Z,0
2017-06-30T02:40:52.530Z,0
2017-06-30T02:41:33.423Z,0
2017-06-30T02:42:14.312Z,0
2017-06-30T02:42:55.208Z,0
2017-06-30T02:43:36.093Z,0
2017-06-30T02:44:16.977Z,0
2017-06-30T02:44:57.859Z,0
2017-06-30T02:45:38.762Z,0
2017-06-30T02:46:19.620Z,0
2017-06-30T02:47:00.512Z,0
2017-06-30T02:47:41.420Z,0
2017-06-30T02:48:22.303Z,0
2017-06-30T02:49:03.205Z,0
2017-06-30T02:49:44.074Z,0
2017-06-30T02:50:24.968Z,0
2017-06-30T02:51:05.857Z,0
2017-06-30T02:51:46.746Z,0
2017-06-30T02:52:27.631Z,0
2017-06-30T02:53:08.517Z,0
2017-06-30T02:53:49.399Z,0
2017-06-30T02:54:30.289Z,0
2017-06-30T02:55:11.184Z,0
2017-06-30T02:55:52.068Z,0
2017-06-30T02:56:32.957Z,0
2017-06-30T02:57:13.853Z,0
2017-06-30T02:57:54.744Z,0
2017-06-30T02:58:35.806Z,5
2017-06-30T02:59:16.699Z,0
2017-06-30T02:59:57.594Z,5
2017-06-30T03:00:38.483Z,0
2017-06-30T03:01:19.370Z,5
2017-06-30T03:02:00.262Z,0
2017-06-30T03:02:41.146Z,0
2017-06-30T03:03:22.042Z,0
2017-06-30T03:04:02.935Z,0
2017-06-30T03:04:43.824Z,0
2017-06-30T03:05:24.714Z,0
2017-06-30T03:06:05.603Z,0
2017-06-30T03:06:46.498Z,0
2017-06-30T03:07:27.389Z,0
2017-06-30T03:08:08.276Z,0
2017-06-30T03:08:49.164Z,0
2017-06-30T03:09:30.066Z,0
2017-06-30T03:10:10.987Z,0
2017-06-30T03:10:51.853Z,0
2017-06-30T03:11:32.747Z,5
2017-06-30T03:12:13.627Z,10
2017-06-30T03:12:54.523Z,10
2017-06-30T03:13:35.414Z,10
2017-06-30T03:14:16.309Z,10
2017-06-30T03:14:57.206Z,10
2017-06-30T03:15:38.101Z,5
2017-06-30T03:16:19.000Z,5
2017-06-30T03:16:59.894Z,5
2017-06-30T03:17:40.824Z,5
2017-06-30T03:18:21.710Z,0
2017-06-30T03:19:02.604Z,0
2017-06-30T03:19:43.493Z,0
2017-06-30T03:20:24.379Z,0
2017-06-30T03:21:05.261Z,5
2017-06-30T03:21:46.151Z,5
2017-06-30T03:22:27.044Z,0
2017-06-30T03:23:07.936Z,0
2017-06-30T03:23:48.847Z,5
2017-06-30T03:24:29.760Z,0
2017-06-30T03:25:10.621Z,0
2017-06-30T03:25:51.525Z,0
2017-06-30T03:26:32.414Z,5
2017-06-30T03:27:13.317Z,5
2017-06-30T03:27:54.212Z,0
2017-06-30T03:28:35.101Z,5
2017-06-30T03:29:16.010Z,5
2017-06-30T03:29:56.927Z,10
2017-06-30T03:30:37.819Z,5
2017-06-30T03:31:18.711Z,5
2017-06-30T03:31:59.593Z,10
2017-06-30T03:32:40.501Z,5
2017-06-30T03:33:21.390Z,10
2017-06-30T03:34:02.307Z,5
2017-06-30T03:36:16.491Z,10
2017-06-30T03:36:57.379Z,15
2017-06-30T03:37:38.270Z,15
2017-06-30T03:38:19.155Z,15
2017-06-30T03:39:00.040Z,20
2017-06-30T03:39:40.958Z,15
2017-06-30T03:40:21.840Z,15
2017-06-30T03:41:02.731Z,15
2017-06-30T03:41:43.617Z,15
2017-06-30T03:42:24.507Z,20
2017-06-30T03:43:05.389Z,20
2017-06-30T03:43:46.278Z,25
2017-06-30T03:44:27.182Z,25
2017-06-30T03:45:08.064Z,20
2017-06-30T03:45:48.956Z,20
2017-06-30T03:46:29.849Z,20
2017-06-30T03:47:10.737Z,25
2017-06-30T03:47:51.616Z,20
2017-06-30T03:48:32.535Z,20
2017-06-30T03:49:13.386Z,25
2017-06-30T03:49:54.306Z,25
2017-06-30T03:50:35.203Z,20
2017-06-30T03:51:16.089Z,25
2017-06-30T03:51:56.972Z,25
2017-06-30T03:52:37.877Z,25
2017-06-30T03:53:18.758Z,30
2017-06-30T03:53:59.636Z,20
2017-06-30T03:54:40.529Z,30
2017-06-30T03:55:21.420Z,30
2017-06-30T03:56:02.307Z,35
2017-06-30T03:56:43.229Z,30
2017-06-30T03:57:24.121Z,25
2017-06-30T03:58:05.044Z,30
2017-06-30T03:58:45.942Z,35
2017-06-30T03:59:26.814Z,35
2017-06-30T04:00:07.779Z,30
2017-06-30T04:00:48.672Z,35
2017-06-30T04:01:29.563Z,45
2017-06-30T04:02:10.441Z,35
2017-06-30T04:02:51.326Z,40
2017-06-30T04:03:32.231Z,40
2017-06-30T04:04:13.100Z,40
2017-06-30T04:04:53.984Z,35
2017-06-30T04:05:34.872Z,40
2017-06-30T04:06:15.760Z,40
2017-06-30T04:06:56.641Z,45
2017-06-30T04:07:37.544Z,40
2017-06-30T04:08:18.435Z,35
2017-06-30T04:08:59.330Z,30
2017-06-30T04:09:40.217Z,35
2017-06-30T04:10:21.106Z,30
2017-06-30T04:11:01.994Z,30
2017-06-30T04:11:42.914Z,35
2017-06-30T04:12:23.800Z,45
2017-06-30T04:13:04.689Z,30
2017-06-30T04:13:45.585Z,30
2017-06-30T04:14:26.484Z,30
2017-06-30T04:15:07.355Z,25
2017-06-30T04:15:48.243Z,30
2017-06-30T04:16:29.134Z,30
2017-06-30T04:17:10.021Z,30
2017-06-30T04:17:50.909Z,25
2017-06-30T04:18:31.797Z,30
2017-06-30T04:19:12.690Z,25
2017-06-30T04:19:53.583Z,30
2017-06-30T04:20:34.479Z,35
2017-06-30T04:21:15.362Z,35
2017-06-30T04:21:56.257Z,40
2017-06-30T04:22:37.155Z,45
2017-06-30T04:23:18.056Z,35
2017-06-30T04:23:58.947Z,25
2017-06-30T04:24:39.836Z,35
2017-06-30T04:25:20.720Z,30
2017-06-30T04:26:01.604Z,50
2017-06-30T04:26:42.504Z,45
2017-06-30T04:27:23.394Z,45
2017-06-30T04:28:04.281Z,45
2017-06-30T04:28:45.173Z,40
2017-06-30T04:29:26.072Z,45
2017-06-30T04:30:06.958Z,55
2017-06-30T04:30:47.856Z,50
2017-06-30T04:31:28.747Z,35
2017-06-30T04:32:09.639Z,40
2017-06-30T04:32:50.529Z,40
2017-06-30T04:33:31.447Z,40
2017-06-30T04:34:12.335Z,45
2017-06-30T04:34:53.225Z,60
2017-06-30T04:35:34.114Z,45
2017-06-30T04:36:15.004Z,40
2017-06-30T04:36:55.903Z,35
2017-06-30T04:37:36.790Z,40
2017-06-30T04:38:17.693Z,40
2017-06-30T04:38:58.580Z,45
2017-06-30T04:39:39.471Z,45
2017-06-30T04:40:20.368Z,40
2017-06-30T04:41:01.245Z,30
2017-06-30T04:41:42.135Z,40
2017-06-30T04:42:23.014Z,45
2017-06-30T04:43:03.907Z,40
2017-06-30T04:43:44.793Z,35
2017-06-30T04:44:25.680Z,30
2017-06-30T04:45:06.567Z,35
2017-06-30T04:45:47.464Z,50
2017-06-30T04:46:28.342Z,40
2017-06-30T04:47:09.225Z,40
2017-06-30T04:47:50.104Z,35
2017-06-30T04:48:30.993Z,30
2017-06-30T04:49:11.884Z,35
2017-06-30T04:49:52.780Z,30
2017-06-30T04:50:33.674Z,25
2017-06-30T04:51:14.566Z,35
2017-06-30T04:51:55.456Z,35
2017-06-30T04:52:36.357Z,40
2017-06-30T04:53:17.245Z,40
2017-06-30T04:53:58.144Z,45
2017-06-30T04:54:39.040Z,40
2017-06-30T04:55:19.935Z,40
2017-06-30T04:56:00.830Z,50
2017-06-30T04:56:41.727Z,50
2017-06-30T04:57:22.616Z,40
2017-06-30T04:58:03.505Z,45
2017-06-30T04:58:44.384Z,40
2017-06-30T04:59:25.275Z,35
2017-06-30T05:00:06.170Z,30
2017-06-30T05:00:47.129Z,30
2017-06-30T05:01:27.966Z,40
2017-06-30T05:02:08.857Z,30
2017-06-30T05:02:49.745Z,30
2017-06-30T05:03:30.629Z,35
2017-06-30T05:04:11.539Z,40
2017-06-30T05:04:52.423Z,45
2017-06-30T05:05:33.314Z,30
2017-06-30T05:06:14.233Z,35
2017-06-30T05:06:55.123Z,35
2017-06-30T05:07:36.014Z,45
2017-06-30T05:08:17.040Z,40
2017-06-30T05:08:57.933Z,40
2017-06-30T05:09:38.833Z,50
2017-06-30T05:10:19.769Z,55
2017-06-30T05:11:00.662Z,55
2017-06-30T05:11:41.548Z,55
2017-06-30T05:12:22.464Z,45
2017-06-30T05:13:03.353Z,45
2017-06-30T05:13:44.248Z,50
2017-06-30T05:14:25.125Z,40
2017-06-30T05:15:06.006Z,35
2017-06-30T05:15:46.900Z,30
2017-06-30T05:16:27.805Z,35
2017-06-30T05:17:08.672Z,35
2017-06-30T05:17:49.558Z,45
2017-06-30T05:18:30.453Z,35
2017-06-30T05:19:11.334Z,30
2017-06-30T05:19:52.224Z,25
2017-06-30T05:20:33.114Z,35
2017-06-30T05:21:14.002Z,35
2017-06-30T05:21:54.881Z,35
2017-06-30T05:22:35.764Z,40
2017-06-30T05:23:16.662Z,40
2017-06-30T05:23:57.548Z,55
2017-06-30T05:24:38.435Z,55
2017-06-30T05:25:19.327Z,60
2017-06-30T05:26:00.251Z,55
2017-06-30T05:26:41.116Z,70
2017-06-30T05:27:22.017Z,65
2017-06-30T05:28:02.905Z,75
2017-06-30T05:28:43.800Z,85
2017-06-30T05:29:24.687Z,65
2017-06-30T05:30:05.578Z,85
2017-06-30T05:30:46.466Z,65
2017-06-30T05:31:27.352Z,60
2017-06-30T05:32:08.245Z,60
2017-06-30T05:32:49.138Z,70
2017-06-30T05:33:30.099Z,85
2017-06-30T05:34:10.988Z,60
2017-06-30T05:34:51.878Z,60
2017-06-30T05:35:32.771Z,50
2017-06-30T05:36:13.653Z,45
2017-06-30T05:36:54.544Z,55
2017-06-30T05:37:35.434Z,55
2017-06-30T05:38:16.323Z,55
2017-06-30T05:38:57.210Z,55
2017-06-30T05:39:38.098Z,40
2017-06-30T05:40:18.986Z,40
2017-06-30T05:40:59.884Z,60
2017-06-30T05:41:40.768Z,65
2017-06-30T05:42:21.655Z,60
2017-06-30T05:43:02.548Z,60
2017-06-30T05:43:43.444Z,75
2017-06-30T05:44:24.350Z,65
2017-06-30T05:45:05.241Z,60
2017-06-30T05:45:46.123Z,65
2017-06-30T05:46:27.017Z,65
2017-06-30T05:47:07.903Z,75
2017-06-30T05:47:48.797Z,80
2017-06-30T05:48:29.682Z,70
2017-06-30T05:49:10.569Z,65
2017-06-30T05:49:51.460Z,70
2017-06-30T05:50:32.345Z,75
2017-06-30T05:51:13.249Z,85
2017-06-30T05:51:54.137Z,95
2017-06-30T05:52:35.023Z,95
2017-06-30T05:53:15.918Z,80
2017-06-30T05:53:56.805Z,100
2017-06-30T05:54:37.698Z,105
2017-06-30T05:55:18.584Z,105
2017-06-30T05:55:59.471Z,100
2017-06-30T05:56:40.388Z,90
2017-06-30T05:57:21.268Z,90
2017-06-30T05:58:02.159Z,100
2017-06-30T05:58:43.042Z,85
2017-06-30T05:59:23.952Z,90
2017-06-30T06:00:04.839Z,105
2017-06-30T06:00:45.729Z,95
2017-06-30T06:01:26.632Z,110
2017-06-30T06:02:07.529Z,115
2017-06-30T06:02:48.417Z,125
2017-06-30T06:03:29.308Z,120
2017-06-30T06:04:10.205Z,110
2017-06-30T06:04:51.097Z,100
2017-06-30T06:05:31.990Z,85
2017-06-30T06:06:12.879Z,75
2017-06-30T06:06:53.768Z,110
2017-06-30T06:07:34.671Z,100
2017-06-30T06:08:15.538Z,125
2017-06-30T06:10:30.315Z,100
2017-06-30T06:11:11.168Z,115
2017-06-30T06:11:52.057Z,130
2017-06-30T06:12:32.936Z,120
2017-06-30T06:13:13.807Z,80
2017-06-30T06:13:54.703Z,75
2017-06-30T06:14:35.596Z,90
2017-06-30T06:15:23.132Z,95
2017-06-30T06:18:02.567Z,85
2017-06-30T06:18:43.456Z,125
2017-06-30T06:19:24.340Z,125
2017-06-30T06:20:05.233Z,130
2017-06-30T06:20:46.133Z,105
2017-06-30T06:21:27.006Z,110
2017-06-30T06:22:07.893Z,130
2017-06-30T06:22:48.781Z,105
2017-06-30T06:25:32.262Z,95
2017-06-30T06:28:01.401Z,145
2017-06-30T06:28:42.281Z,120
2017-06-30T06:30:56.054Z,160
2017-06-30T06:31:36.944Z,130
2017-06-30T06:33:50.670Z,135
2017-06-30T06:36:45.119Z,125
2017-06-30T06:37:25.990Z,125
2017-06-30T06:39:55.702Z,125
2017-06-30T06:42:39.200Z,165
2017-06-30T06:45:08.346Z,165
2017-06-30T06:45:49.239Z,170
2017-06-30T06:46:30.129Z,160
2017-06-30T06:47:11.024Z,145
2017-06-30T06:47:51.869Z,165
2017-06-30T06:48:32.764Z,145
2017-06-30T06:49:14.496Z,140
2017-06-30T06:49:55.392Z,160
2017-06-30T06:50:36.272Z,150
2017-06-30T06:51:17.157Z,115
2017-06-30T06:53:56.199Z,165
2017-06-30T06:54:37.088Z,195
2017-06-30T06:55:17.974Z,180
2017-06-30T06:55:58.867Z,155
2017-06-30T06:56:39.749Z,175
2017-06-30T06:57:20.643Z,190
2017-06-30T06:58:01.541Z,190
2017-06-30T07:00:22.245Z,155
2017-06-30T07:03:04.367Z,145
2017-06-30T07:03:45.259Z,145
2017-06-30T07:04:26.150Z,145
2017-06-30T07:07:05.607Z,140
2017-06-30T07:07:46.504Z,155
2017-06-30T07:10:00.243Z,150
2017-06-30T07:10:41.146Z,155
2017-06-30T07:11:22.028Z,140
2017-06-30T07:12:02.926Z,160
2017-06-30T07:14:40.995Z,160
2017-06-30T07:16:54.744Z,150
2017-06-30T07:17:46.462Z,175
2017-06-30T07:18:28.938Z,160
2017-06-30T07:19:09.819Z,135
2017-06-30T07:19:50.967Z,145
2017-06-30T07:20:31.861Z,160
2017-06-30T07:23:06.353Z,145
2017-06-30T07:23:48.890Z,170
2017-06-30T07:24:29.966Z,165
2017-06-30T07:25:10.960Z,170
2017-06-30T07:25:52.340Z,170
2017-06-30T07:26:33.370Z,185
2017-06-30T07:27:14.285Z,160
2017-06-30T07:27:55.197Z,160
2017-06-30T07:28:36.098Z,145
2017-06-30T07:29:17.008Z,190
2017-06-30T07:29:58.409Z,145
2017-06-30T07:30:40.109Z,145
2017-06-30T07:32:42.443Z,195
2017-06-30T07:33:23.797Z,180
2017-06-30T07:34:04.684Z,200
2017-06-30T07:34:45.569Z,170
2017-06-30T07:35:26.435Z,175
2017-06-30T07:36:07.305Z,170
2017-06-30T07:36:50.165Z,195
2017-06-30T07:37:32.216Z,140
2017-06-30T07:38:13.113Z,160
2017-06-30T07:38:53.994Z,145
2017-06-30T07:39:34.875Z,150
2017-06-30T07:40:15.756Z,190
2017-06-30T07:40:56.648Z,195
2017-06-30T07:41:37.536Z,160
2017-06-30T07:42:18.437Z,170
2017-06-30T07:42:59.316Z,185
2017-06-30T07:43:40.202Z,175
2017-06-30T07:44:21.074Z,175
2017-06-30T07:45:01.945Z,170
2017-06-30T07:45:42.825Z,185
2017-06-30T07:46:23.717Z,140
2017-06-30T07:47:04.580Z,145
2017-06-30T07:47:45.446Z,160
2017-06-30T07:48:26.335Z,110
2017-06-30T07:49:07.245Z,115
2017-06-30T07:49:48.128Z,120
2017-06-30T07:50:29.048Z,120
2017-06-30T07:51:09.925Z,140
2017-06-30T07:51:50.803Z,150
2017-06-30T07:52:31.683Z,145
2017-06-30T07:53:12.579Z,175
2017-06-30T07:53:53.909Z,185
2017-06-30T07:54:36.014Z,110
2017-06-30T07:55:16.969Z,140
2017-06-30T07:55:58.599Z,145
2017-06-30T07:56:40.848Z,115
2017-06-30T07:57:23.296Z,120
2017-06-30T07:58:04.158Z,150
2017-06-30T07:58:45.587Z,150
2017-06-30T07:59:26.461Z,160
2017-06-30T08:00:07.349Z,170
2017-06-30T08:00:48.234Z,195
2017-06-30T08:01:29.116Z,200
2017-06-30T08:02:10.594Z,225
2017-06-30T08:04:16.364Z,205
2017-06-30T08:04:57.257Z,240
2017-06-30T08:05:38.141Z,255
2017-06-30T08:06:19.036Z,240
2017-06-30T08:08:32.790Z,265
2017-06-30T08:09:13.682Z,240
2017-06-30T08:09:54.568Z,230
2017-06-30T08:10:35.455Z,270
2017-06-30T08:13:04.602Z,235
2017-06-30T08:13:45.483Z,255
2017-06-30T08:14:26.366Z,240
2017-06-30T08:15:07.260Z,225
2017-06-30T08:15:48.144Z,245
2017-06-30T08:16:29.026Z,215
2017-06-30T08:18:42.826Z,205
2017-06-30T08:19:30.454Z,235
2017-06-30T08:20:11.340Z,195
2017-06-30T08:22:51.161Z,165
2017-06-30T08:23:32.049Z,155
2017-06-30T08:24:12.947Z,170
2017-06-30T08:24:53.842Z,180
2017-06-30T08:27:23.007Z,290
2017-06-30T08:28:03.892Z,290
2017-06-30T08:28:44.782Z,325
2017-06-30T08:31:26.817Z,275
2017-06-30T08:32:07.702Z,250
2017-06-30T08:32:48.589Z,270
2017-06-30T08:33:29.474Z,260
2017-06-30T08:34:10.365Z,200
2017-06-30T08:34:51.247Z,260
2017-06-30T08:35:32.139Z,275
2017-06-30T08:36:13.033Z,275
2017-06-30T08:36:53.920Z,310
2017-06-30T08:37:34.814Z,260
2017-06-30T08:38:15.717Z,285
2017-06-30T08:38:56.614Z,245
2017-06-30T08:39:37.506Z,280
2017-06-30T08:40:18.381Z,290
2017-06-30T08:41:00.173Z,285
2017-06-30T08:41:41.051Z,275
2017-06-30T08:42:21.932Z,250
2017-06-30T08:43:04.466Z,205
2017-06-30T08:43:45.351Z,225
2017-06-30T08:44:28.132Z,205
2017-06-30T08:45:09.014Z,195
2017-06-30T08:45:49.902Z,185
2017-06-30T08:46:30.812Z,205
2017-06-30T08:47:11.692Z,210
2017-06-30T08:47:52.587Z,155
2017-06-30T08:48:33.493Z,205
2017-06-30T08:49:14.365Z,235
2017-06-30T08:49:55.268Z,235
2017-06-30T08:50:36.189Z,210
2017-06-30T08:51:17.082Z,205
2017-06-30T08:51:57.981Z,215
2017-06-30T08:52:38.864Z,185
2017-06-30T08:53:19.750Z,155
2017-06-30T08:54:00.653Z,250
2017-06-30T08:54:41.543Z,220
2017-06-30T08:55:22.476Z,230
2017-06-30T08:56:03.364Z,180
2017-06-30T08:56:44.252Z,175
2017-06-30T08:57:25.172Z,195
2017-06-30T08:58:06.057Z,180
2017-06-30T08:58:46.951Z,200
2017-06-30T08:59:27.827Z,275
2017-06-30T09:00:08.714Z,290
2017-06-30T09:00:49.609Z,250
2017-06-30T09:01:30.501Z,245
2017-06-30T09:02:12.985Z,245
2017-06-30T09:02:53.875Z,230
2017-06-30T09:03:34.762Z,230
2017-06-30T09:04:15.649Z,190
2017-06-30T09:04:56.543Z,235
2017-06-30T09:05:37.451Z,315
2017-06-30T09:06:18.349Z,285
2017-06-30T09:06:59.237Z,300
2017-06-30T09:07:41.639Z,265
2017-06-30T09:08:22.525Z,310
2017-06-30T09:09:03.418Z,320
2017-06-30T09:09:44.318Z,325
2017-06-30T09:10:25.212Z,310
2017-06-30T09:11:06.110Z,290
2017-06-30T09:11:46.993Z,335
2017-06-30T09:12:27.880Z,350
2017-06-30T09:13:08.769Z,340
2017-06-30T09:13:49.665Z,305
2017-06-30T09:14:30.569Z,330
2017-06-30T09:15:11.475Z,315
2017-06-30T09:15:52.358Z,330
2017-06-30T09:16:33.254Z,280
2017-06-30T09:17:14.191Z,260
2017-06-30T09:17:55.112Z,270
2017-06-30T09:18:36.004Z,250
2017-06-30T09:19:19.479Z,250
2017-06-30T09:20:00.367Z,220
2017-06-30T09:20:41.251Z,180
2017-06-30T09:21:22.160Z,185
2017-06-30T09:22:03.048Z,230
2017-06-30T09:22:43.932Z,200
2017-06-30T09:23:24.823Z,155
2017-06-30T09:24:07.265Z,175
2017-06-30T09:24:48.159Z,200
2017-06-30T09:25:29.053Z,190
2017-06-30T09:26:11.681Z,190
2017-06-30T09:26:52.575Z,200
2017-06-30T09:27:33.465Z,225
2017-06-30T09:28:14.347Z,180
2017-06-30T09:28:55.237Z,195
2017-06-30T09:29:36.133Z,275
2017-06-30T09:30:17.020Z,240
2017-06-30T09:30:57.907Z,185
2017-06-30T09:31:38.798Z,250
2017-06-30T09:32:19.703Z,235
2017-06-30T09:33:00.601Z,195
2017-06-30T09:33:41.485Z,165
2017-06-30T09:34:22.376Z,175
2017-06-30T09:35:03.269Z,175
2017-06-30T09:35:44.164Z,190
2017-06-30T09:36:25.052Z,230
2017-06-30T09:37:05.953Z,165
2017-06-30T09:39:21.110Z,245
2017-06-30T09:40:02.015Z,230
2017-06-30T09:40:42.931Z,290
2017-06-30T09:41:23.828Z,270
2017-06-30T09:42:04.715Z,220
2017-06-30T09:42:45.600Z,255
2017-06-30T09:43:26.496Z,245
2017-06-30T09:44:07.386Z,200
2017-06-30T09:44:48.277Z,235
2017-06-30T09:45:29.181Z,210
2017-06-30T09:46:10.061Z,220
2017-06-30T09:46:50.951Z,220
2017-06-30T09:47:31.849Z,245
2017-06-30T09:48:12.737Z,245
2017-06-30T09:48:53.628Z,245
2017-06-30T09:49:34.528Z,245
2017-06-30T09:50:15.415Z,215
2017-06-30T09:50:56.306Z,240
2017-06-30T09:51:37.207Z,265
2017-06-30T09:52:18.084Z,315
2017-06-30T09:52:58.989Z,315
2017-06-30T09:53:39.872Z,305
2017-06-30T09:54:20.771Z,305
2017-06-30T09:55:01.663Z,300
2017-06-30T09:55:43.503Z,290
2017-06-30T09:56:24.407Z,245
2017-06-30T09:57:05.299Z,190
2017-06-30T09:57:46.217Z,205
2017-06-30T09:58:27.109Z,160
2017-06-30T09:59:09.925Z,190
2017-06-30T09:59:50.818Z,255
2017-06-30T10:00:31.712Z,310
2017-06-30T10:01:14.406Z,290
2017-06-30T10:01:55.297Z,300
2017-06-30T10:02:36.186Z,345
2017-06-30T10:03:17.088Z,320
2017-06-30T10:03:57.986Z,365
2017-06-30T10:04:38.871Z,365
2017-06-30T10:05:19.759Z,345
2017-06-30T10:06:00.645Z,340
2017-06-30T10:06:41.532Z,300
2017-06-30T10:07:22.425Z,250
2017-06-30T10:08:03.313Z,250
2017-06-30T10:08:44.212Z,260
2017-06-30T10:09:25.105Z,290
2017-06-30T10:10:06.000Z,320
2017-06-30T10:10:46.884Z,290
2017-06-30T10:11:27.781Z,245
2017-06-30T10:12:08.668Z,175
2017-06-30T10:12:49.560Z,140
2017-06-30T10:13:30.444Z,130
2017-06-30T10:14:11.342Z,140
2017-06-30T10:14:52.232Z,220
2017-06-30T10:15:33.119Z,235
2017-06-30T10:16:14.020Z,225
2017-06-30T10:16:54.927Z,275
2017-06-30T10:17:35.828Z,290
2017-06-30T10:18:16.702Z,300
2017-06-30T10:18:57.589Z,350
2017-06-30T10:19:38.471Z,300
2017-06-30T10:21:53.375Z,420
2017-06-30T10:22:34.261Z,365
2017-06-30T10:23:15.151Z,335
2017-06-30T10:23:56.053Z,390
2017-06-30T10:24:36.949Z,395
2017-06-30T10:25:17.842Z,325
2017-06-30T10:25:58.714Z,400
2017-06-30T10:26:39.610Z,360
2017-06-30T10:27:20.503Z,275
2017-06-30T10:28:01.406Z,190
2017-06-30T10:28:42.292Z,280
2017-06-30T10:29:23.176Z,315
2017-06-30T10:30:04.060Z,285
2017-06-30T10:30:44.946Z,405
2017-06-30T10:31:25.834Z,395
2017-06-30T10:32:06.715Z,340
2017-06-30T10:32:47.595Z,370
2017-06-30T10:33:28.483Z,425
2017-06-30T10:34:09.382Z,350
2017-06-30T10:34:50.273Z,220
2017-06-30T10:35:31.156Z,230
2017-06-30T10:36:12.042Z,230
2017-06-30T10:36:52.938Z,305